Time;durP1;ratioP1;P1;durP2;ratioP2;P2;SDS_P1;SDS_P2;PMS_P1;PMS_P2;Temp;Humidity;BMP_temperature;BMP_pressure;BME280_temperature;BME280_humidity;BME280_pressure;Samples;Min_cycle;Max_cycle;Signal;HPM_P1;HPM_P2
2022/03/24 00:00:19;;;;;;;29.60;15.43;;;;;;;0.64;68.66;99874.41;4188844;28;20024;-72
2022/03/24 00:02:20;;;;;;;29.67;14.73;;;;;;;0.70;67.17;99865.94;4189408;28;20039;-72
2022/03/24 00:04:20;;;;;;;29.70;15.52;;;;;;;0.68;68.13;99868.16;4190112;28;20048;-72
2022/03/24 00:06:20;;;;;;;30.52;16.85;;;;;;;0.69;66.92;99871.69;4190105;28;20044;-72
2022/03/24 00:08:21;;;;;;;29.25;15.88;;;;;;;0.68;67.17;99862.69;4186479;28;20361;-72
2022/03/24 00:10:21;;;;;;;24.42;15.18;;;;;;;0.72;66.95;99873.84;4189347;28;20048;-72
2022/03/24 00:12:22;;;;;;;28.65;15.85;;;;;;;0.66;66.93;99869.50;4186742;28;20098;-72
2022/03/24 00:14:22;;;;;;;30.67;16.08;;;;;;;0.59;67.29;99860.84;4186159;28;20055;-71
2022/03/24 00:16:23;;;;;;;31.00;15.25;;;;;;;0.54;66.75;99867.09;4187735;28;20036;-71
2022/03/24 00:18:24;;;;;;;28.70;15.60;;;;;;;0.50;68.00;99863.31;4189662;28;20028;-71
2022/03/24 00:20:25;;;;;;;25.10;14.30;;;;;;;0.53;67.16;99868.19;4187613;28;20041;-71
2022/03/24 00:22:26;;;;;;;26.48;15.00;;;;;;;0.51;67.51;99871.22;4187543;28;20048;-72
2022/03/24 00:24:26;;;;;;;30.50;15.98;;;;;;;0.44;67.82;99867.97;4189913;28;20047;-72
2022/03/24 00:26:27;;;;;;;24.77;14.70;;;;;;;0.37;68.92;99870.16;4189662;28;20036;-72
2022/03/24 00:28:27;;;;;;;26.25;14.52;;;;;;;0.30;68.32;99869.63;4187850;28;20384;-72
2022/03/24 00:30:28;;;;;;;27.25;14.30;;;;;;;0.24;69.02;99863.38;4189428;28;20094;-72
2022/03/24 00:32:28;;;;;;;24.13;12.77;;;;;;;0.21;69.50;99866.66;4188340;28;20152;-72
2022/03/24 00:34:28;;;;;;;24.70;13.93;;;;;;;0.17;69.04;99859.34;4188614;28;20033;-72
2022/03/24 00:36:29;;;;;;;32.85;12.85;;;;;;;0.14;68.60;99855.25;4189085;28;20033;-72
2022/03/24 00:38:29;;;;;;;23.92;12.48;;;;;;;0.13;68.77;99860.97;4187792;28;20417;-72
2022/03/24 00:40:30;;;;;;;27.08;13.90;;;;;;;0.08;69.24;99855.50;4189966;28;20460;-72
2022/03/24 00:42:30;;;;;;;20.92;11.70;;;;;;;0.03;70.12;99864.53;4191342;28;20045;-71
2022/03/24 00:44:31;;;;;;;26.20;13.18;;;;;;;-0.03;73.06;99862.91;4187972;28;20358;-72
2022/03/24 00:46:32;;;;;;;20.83;12.95;;;;;;;-0.16;73.43;99856.13;4187447;28;20047;-72
2022/03/24 00:48:32;;;;;;;22.73;13.68;;;;;;;-0.23;73.44;99852.06;4187586;28;20143;-72
2022/03/24 00:50:33;;;;;;;26.17;12.27;;;;;;;-0.34;73.53;99857.47;4187352;28;20044;-72
2022/03/24 00:52:34;;;;;;;24.48;12.98;;;;;;;-0.42;74.23;99857.19;4190461;28;20043;-71
2022/03/24 00:54:35;;;;;;;20.60;11.83;;;;;;;-0.48;74.90;99855.59;4189169;28;20490;-72
2022/03/24 00:56:35;;;;;;;24.40;12.82;;;;;;;-0.54;73.82;99857.47;4185916;28;20040;-72
2022/03/24 00:58:36;;;;;;;22.83;12.68;;;;;;;-0.62;74.45;99853.41;4188610;28;20052;-72
2022/03/24 01:00:38;;;;;;;22.95;12.20;;;;;;;-0.65;75.13;99848.53;4189939;28;20048;-72
2022/03/24 01:02:38;;;;;;;21.55;12.20;;;;;;;-0.68;75.23;99850.94;4194183;28;20047;-72
2022/03/24 01:04:39;;;;;;;22.52;11.70;;;;;;;-0.69;75.36;99846.59;4193357;28;20484;-71
2022/03/24 01:06:40;;;;;;;23.27;11.63;;;;;;;-0.71;75.09;99840.63;4192698;28;20059;-71
2022/03/24 01:08:41;;;;;;;21.50;11.93;;;;;;;-0.77;75.84;99839.78;4192958;28;20068;-71
2022/03/24 01:10:42;;;;;;;22.58;12.02;;;;;;;-0.82;76.78;99839.81;4192725;28;20315;-71
2022/03/24 01:12:43;;;;;;;18.08;10.23;;;;;;;-0.87;76.63;99839.78;4193221;28;20462;-71
2022/03/24 01:14:44;;;;;;;21.00;11.48;;;;;;;-0.89;75.69;99836.53;4198289;28;20565;-71
2022/03/24 01:16:45;;;;;;;24.23;12.43;;;;;;;-0.94;75.69;99837.31;4189174;28;20037;-72
2022/03/24 01:18:45;;;;;;;19.23;11.25;;;;;;;-0.97;75.57;99831.63;4194989;28;20048;-71
2022/03/24 01:20:46;;;;;;;20.95;12.00;;;;;;;-0.95;75.37;99832.16;4196602;28;20048;-70
2022/03/24 01:22:47;;;;;;;24.75;12.18;;;;;;;-0.94;74.40;99839.22;4192827;28;20048;-71
2022/03/24 01:24:47;;;;;;;22.52;11.82;;;;;;;-0.97;74.91;99839.78;4187665;28;20036;-71
2022/03/24 01:26:47;;;;;;;29.33;13.27;;;;;;;-1.01;76.33;99842.19;4188777;28;20072;-71
2022/03/24 01:28:50;;;;;;;26.45;13.25;;;;;;;-1.06;76.76;99834.06;4195096;28;20044;-71
2022/03/24 01:30:51;;;;;;;22.73;13.18;;;;;;;-1.13;76.83;99831.59;4191968;28;20075;-71
2022/03/24 01:32:51;;;;;;;25.95;13.65;;;;;;;-1.15;76.68;99830.25;4195637;28;20040;-71
2022/03/24 01:34:52;;;;;;;25.63;13.30;;;;;;;-1.21;77.07;99829.41;4193324;28;20036;-71
2022/03/24 01:36:53;;;;;;;20.92;11.75;;;;;;;-1.21;75.66;99828.59;4190926;28;20052;-71
2022/03/24 01:38:53;;;;;;;26.25;12.85;;;;;;;-1.25;75.82;99828.28;4193721;28;20049;-71
2022/03/24 01:40:53;;;;;;;26.30;13.70;;;;;;;-1.25;77.10;99822.03;4188654;28;20127;-71
2022/03/24 01:42:55;;;;;;;23.80;13.18;;;;;;;-1.30;77.15;99822.03;4193221;28;20132;-71
2022/03/24 01:44:56;;;;;;;24.25;12.52;;;;;;;-1.30;76.38;99825.56;4195409;28;20039;-71
2022/03/24 01:47:05;;;;;;;27.95;13.85;;;;;;;-1.30;75.68;99822.84;4194003;28;20052;-71
2022/03/24 01:49:06;;;;;;;24.55;13.85;;;;;;;-1.33;75.96;99819.84;4199872;28;20037;-71
2022/03/24 01:51:07;;;;;;;27.77;13.27;;;;;;;-1.38;76.09;99820.66;4196331;28;20319;-71
2022/03/24 01:53:07;;;;;;;28.38;15.35;;;;;;;-1.44;76.79;99832.59;4194064;28;20394;-71
2022/03/24 01:55:08;;;;;;;26.40;14.27;;;;;;;-1.51;76.74;99823.88;4190672;28;20052;-71
2022/03/24 01:57:11;;;;;;;27.55;14.38;;;;;;;-1.53;76.03;99826.03;4199049;28;20453;-71
2022/03/24 01:59:14;;;;;;;28.58;14.77;;;;;;;-1.58;76.24;99826.00;4190789;28;20342;-71
2022/03/24 02:01:36;;;;;;;30.65;15.13;;;;;;;-1.66;76.51;99837.38;4193364;28;20076;-71
2022/03/24 02:03:37;;;;;;;26.73;14.30;;;;;;;-1.67;76.80;99836.56;4193033;28;20052;-71
2022/03/24 02:05:38;;;;;;;35.42;16.63;;;;;;;-1.74;77.09;99836.81;4197456;28;20048;-71
2022/03/24 02:07:39;;;;;;;25.95;14.93;;;;;;;-1.78;76.93;99824.84;4190268;28;20519;-71
2022/03/24 02:09:39;;;;;;;28.13;14.43;;;;;;;-1.81;76.92;99828.09;4190847;28;20044;-71
2022/03/24 02:11:40;;;;;;;35.20;16.75;;;;;;;-1.79;75.79;99831.34;4195422;28;20444;-71
2022/03/24 02:13:40;;;;;;;31.05;16.17;;;;;;;-1.81;75.90;99827.28;4196880;28;20134;-71
2022/03/24 02:15:41;;;;;;;28.08;14.93;;;;;;;-1.80;76.17;99832.44;4198416;28;20040;-71
2022/03/24 02:17:41;;;;;;;35.00;15.73;;;;;;;-1.82;76.87;99823.75;4195168;28;20045;-71
2022/03/24 02:19:42;;;;;;;31.45;15.90;;;;;;;-1.80;76.63;99826.19;4193130;28;20126;-70
2022/03/24 02:21:46;;;;;;;34.25;16.40;;;;;;;-1.81;76.90;99827.28;4195022;28;20040;-71
2022/03/24 02:23:49;;;;;;;30.95;16.00;;;;;;;-1.80;75.82;99821.59;4192920;28;20113;-71
2022/03/24 02:25:52;;;;;;;28.75;14.27;;;;;;;-1.83;76.40;99821.28;4196717;28;20036;-71
2022/03/24 02:27:55;;;;;;;;;;;;;;;-1.79;76.31;99817.78;4190468;28;20064;-71
2022/03/24 02:29:55;;;;;;;26.55;13.80;;;;;;;-1.75;76.16;99816.16;4198253;28;20363;-71
2022/03/24 02:31:56;;;;;;;32.20;15.05;;;;;;;-1.76;75.69;99821.84;4194772;28;20055;-71
2022/03/24 02:34:37;;;;;;;30.20;14.48;;;;;;;-1.84;75.93;99806.91;4196711;28;20044;-71
2022/03/24 02:36:16;;;;;;;27.45;14.25;;;;;;;-1.90;76.50;99805.25;4194636;28;20043;-71
2022/03/24 02:38:20;;;;;;;31.50;14.95;;;;;;;-1.87;76.30;99814.75;4191934;28;20483;-71
2022/03/24 02:40:20;;;;;;;27.45;13.98;;;;;;;-1.85;75.54;99813.41;4194541;28;20020;-71
2022/03/24 02:42:29;;;;;;;28.90;14.75;;;;;;;-1.87;75.88;99817.47;4194960;28;20441;-71
2022/03/24 02:44:30;;;;;;;28.00;15.23;;;;;;;-1.93;76.72;99815.81;4196219;28;20052;-71
2022/03/24 02:46:30;;;;;;;23.67;13.52;;;;;;;-1.99;77.49;99812.25;4197831;28;20491;-71
2022/03/24 02:48:31;;;;;;;26.90;13.27;;;;;;;-2.06;78.10;99809.78;4195477;28;20211;-71
2022/03/24 02:50:31;;;;;;;27.25;13.52;;;;;;;-2.11;78.53;99811.66;4199485;28;20036;-71
2022/03/24 02:52:31;;;;;;;27.38;12.95;;;;;;;-2.13;79.01;99814.63;4196938;28;20129;-71
2022/03/24 02:54:32;;;;;;;23.85;12.98;;;;;;;-2.20;78.98;99816.75;4195218;28;20494;-71
2022/03/24 02:56:33;;;;;;;24.00;13.30;;;;;;;-2.24;78.19;99810.19;4187643;28;20459;-71
2022/03/24 02:58:33;;;;;;;27.02;14.13;;;;;;;-2.23;77.88;99819.16;4195390;28;20083;-71
2022/03/24 03:00:34;;;;;;;28.67;15.18;;;;;;;-2.29;79.75;99819.13;4192808;28;20075;-71
2022/03/24 03:02:34;;;;;;;24.90;13.73;;;;;;;-2.34;80.00;99820.97;4195715;28;20094;-71
2022/03/24 03:04:35;;;;;;;26.80;14.02;;;;;;;-2.38;79.28;99815.28;4196761;28;20044;-71
2022/03/24 03:06:39;;;;;;;27.35;13.48;;;;;;;-2.36;78.70;99815.81;4191745;28;20498;-71
2022/03/24 03:08:39;;;;;;;30.85;13.55;;;;;;;-2.35;78.66;99811.22;4194241;28;20048;-71
2022/03/24 03:10:40;;;;;;;26.15;14.65;;;;;;;-2.32;77.38;99816.09;4194453;28;20032;-71
2022/03/24 03:12:44;;;;;;;29.02;14.07;;;;;;;-2.26;77.51;99820.50;4197475;28;20131;-71
2022/03/24 03:14:48;;;;;;;32.42;14.27;;;;;;;-2.26;76.84;99817.78;4192271;28;20042;-71
2022/03/24 03:16:49;;;;;;;28.98;14.48;;;;;;;-2.31;77.35;99824.00;4193779;28;20217;-71
2022/03/24 03:18:49;;;;;;;30.95;14.52;;;;;;;-2.33;77.33;99817.19;4194807;28;20452;-71
2022/03/24 03:20:49;;;;;;;25.05;14.88;;;;;;;-2.32;77.93;99829.66;4192090;28;20118;-71
2022/03/24 03:22:50;;;;;;;28.60;14.85;;;;;;;-2.33;78.36;99822.59;4195094;28;20025;-71
2022/03/24 03:24:50;;;;;;;27.70;14.88;;;;;;;-2.36;77.93;99820.44;4194578;28;20135;-71
2022/03/24 03:26:52;;;;;;;25.80;13.68;;;;;;;-2.30;78.88;99824.81;4192988;28;20402;-71
2022/03/24 03:28:53;;;;;;;26.30;14.48;;;;;;;-2.22;78.07;99820.81;4195628;28;20044;-71
2022/03/24 03:30:53;;;;;;;30.95;13.73;;;;;;;-2.10;77.08;99818.69;4189156;28;20420;-71
2022/03/24 03:32:53;;;;;;;30.35;14.85;;;;;;;-2.02;76.50;99815.50;4197661;28;20468;-71
2022/03/24 03:34:54;;;;;;;28.60;14.93;;;;;;;-1.94;76.83;99820.41;4195516;28;20056;-71
2022/03/24 03:36:55;;;;;;;26.83;14.75;;;;;;;-1.93;75.72;99821.22;4193291;28;20047;-71
2022/03/24 03:38:55;;;;;;;29.45;15.68;;;;;;;-1.96;75.59;99822.59;4195596;28;20083;-71
2022/03/24 03:40:56;;;;;;;33.72;16.48;;;;;;;-1.99;75.50;99834.78;4198668;28;20072;-71
2022/03/24 03:42:56;;;;;;;30.75;15.73;;;;;;;-2.01;75.39;99822.53;4193644;28;20048;-71
2022/03/24 03:44:57;;;;;;;30.58;15.45;;;;;;;-2.10;76.00;99818.69;4197295;28;20420;-71
2022/03/24 03:46:57;;;;;;;31.02;15.95;;;;;;;-2.16;76.44;99831.41;4197146;28;20109;-71
2022/03/24 03:48:59;;;;;;;42.80;17.85;;;;;;;-2.14;76.58;99837.41;4195378;28;20055;-71
2022/03/24 03:51:00;;;;;;;33.42;17.02;;;;;;;-2.08;75.26;99830.09;4193699;28;20384;-71
2022/03/24 03:53:00;;;;;;;29.25;16.50;;;;;;;-2.04;74.77;99825.78;4195365;28;20221;-71
2022/03/24 03:55:01;;;;;;;31.35;15.45;;;;;;;-2.02;74.45;99827.16;4193658;28;20408;-71
2022/03/24 03:57:02;;;;;;;31.25;14.38;;;;;;;-1.97;74.35;99826.38;4192224;28;20412;-71
2022/03/24 03:59:04;;;;;;;30.08;14.80;;;;;;;-2.06;74.39;99820.63;4194961;28;20043;-71
2022/03/24 04:01:06;;;;;;;33.33;15.57;;;;;;;-2.19;76.15;99833.84;4192793;28;20441;-71
2022/03/24 04:03:06;;;;;;;29.70;14.10;;;;;;;-2.30;76.50;99832.94;4189195;28;20312;-71
2022/03/24 04:05:07;;;;;;;25.40;13.35;;;;;;;-2.35;76.44;99832.91;4190770;28;20421;-71
2022/03/24 04:07:07;;;;;;;27.67;14.25;;;;;;;-2.37;76.54;99824.22;4196130;28;20492;-71
2022/03/24 04:09:08;;;;;;;32.38;13.60;;;;;;;-2.39;75.82;99829.91;4194278;28;20498;-71
2022/03/24 04:11:10;;;;;;;24.67;13.65;;;;;;;-2.40;76.64;99822.84;4194231;28;20095;-71
2022/03/24 04:13:11;;;;;;;24.92;12.48;;;;;;;-2.37;76.09;99830.47;4190031;28;20433;-71
2022/03/24 04:15:11;;;;;;;25.77;13.48;;;;;;;-2.36;76.04;99829.38;4196341;28;20378;-71
2022/03/24 04:17:12;;;;;;;27.83;12.43;;;;;;;-2.40;76.97;99822.84;4188595;28;20068;-71
2022/03/24 04:19:12;;;;;;;24.17;11.57;;;;;;;-2.46;75.95;99815.75;4187589;28;20503;-71
2022/03/24 04:21:13;;;;;;;23.65;13.05;;;;;;;-2.44;76.09;99819.03;4188868;28;20053;-71
2022/03/24 04:23:13;;;;;;;23.30;12.57;;;;;;;-2.42;75.38;99824.19;4195725;28;20164;-71
2022/03/24 04:25:17;;;;;;;25.63;13.85;;;;;;;-2.47;76.16;99827.69;4194805;28;20333;-71
2022/03/24 04:27:17;;;;;;;25.27;12.40;;;;;;;-2.51;76.34;99825.72;4190500;28;20059;-71
2022/03/24 04:29:18;;;;;;;24.50;13.43;;;;;;;-2.57;77.68;99827.56;4195952;28;20607;-71
2022/03/24 04:31:18;;;;;;;26.67;13.32;;;;;;;-2.69;77.78;99825.06;4192534;28;20072;-71
2022/03/24 04:33:19;;;;;;;25.95;12.30;;;;;;;-2.77;78.42;99822.00;4188595;28;20135;-71
2022/03/24 04:35:20;;;;;;;22.83;12.38;;;;;;;-2.86;78.36;99825.19;4188016;28;20098;-71
2022/03/24 04:37:20;;;;;;;30.33;16.23;;;;;;;-2.92;79.34;99819.97;4193975;28;20348;-71
2022/03/24 04:39:20;;;;;;;31.63;14.88;;;;;;;-2.98;79.46;99829.97;4186750;28;20455;-71
2022/03/24 04:41:23;;;;;;;27.80;14.10;;;;;;;-2.95;80.00;99825.91;4194106;28;20181;-71
2022/03/24 04:43:24;;;;;;;22.25;12.55;;;;;;;-2.89;77.69;99825.72;4199491;28;20439;-71
2022/03/24 04:45:32;;;;;;;25.85;12.88;;;;;;;-2.89;77.34;99828.41;4194704;28;20109;-71
2022/03/24 04:47:34;;;;;;;28.23;13.43;;;;;;;-2.95;78.37;99823.19;4190344;28;20044;-71
2022/03/24 04:49:35;;;;;;;27.58;14.57;;;;;;;-2.99;79.59;99822.88;4191897;28;20123;-71
2022/03/24 04:51:36;;;;;;;25.48;13.80;;;;;;;-3.01;79.69;99830.44;4190081;28;20076;-71
2022/03/24 04:53:36;;;;;;;23.38;12.57;;;;;;;-2.97;79.49;99828.06;4186395;28;20067;-71
2022/03/24 04:55:36;;;;;;;30.45;13.75;;;;;;;-2.92;78.15;99830.81;4189664;28;20036;-71
2022/03/24 04:57:37;;;;;;;29.92;13.68;;;;;;;-2.92;78.05;99833.50;4187556;28;20053;-71
2022/03/24 04:59:37;;;;;;;26.65;14.20;;;;;;;-2.97;78.58;99828.88;4189410;28;20439;-71
2022/03/24 05:01:38;;;;;;;31.42;15.32;;;;;;;-3.01;78.95;99833.16;4191156;28;20373;-71
2022/03/24 05:03:38;;;;;;;30.00;14.63;;;;;;;-2.94;79.20;99836.47;4189803;28;20051;-71
2022/03/24 05:05:38;;;;;;;28.27;14.27;;;;;;;-2.96;78.90;99833.22;4186482;28;20464;-71
2022/03/24 05:07:40;;;;;;;31.20;15.50;;;;;;;-2.97;78.18;99830.78;4185510;28;20493;-71
2022/03/24 05:09:40;;;;;;;35.67;16.00;;;;;;;-2.96;78.42;99837.81;4189006;28;20259;-71
2022/03/24 05:11:40;;;;;;;26.95;14.93;;;;;;;-2.97;78.35;99833.47;4191589;28;20123;-71
2022/03/24 05:13:41;;;;;;;29.92;14.55;;;;;;;-2.98;77.70;99832.66;4195056;28;20442;-71
2022/03/24 05:15:41;;;;;;;25.98;12.98;;;;;;;-2.98;77.54;99842.66;4196497;28;20288;-71
2022/03/24 05:17:41;;;;;;;29.90;14.15;;;;;;;-3.03;79.00;99842.63;4190353;28;20072;-71
2022/03/24 05:19:44;;;;;;;28.92;14.13;;;;;;;-3.09;80.01;99832.81;4193064;28;20048;-71
2022/03/24 05:21:45;;;;;;;33.75;15.57;;;;;;;-3.17;81.01;99843.00;4196237;28;20574;-71
2022/03/24 05:23:46;;;;;;;30.85;14.18;;;;;;;-3.26;82.04;99839.13;4191344;28;20044;-71
2022/03/24 05:25:48;;;;;;;29.23;14.43;;;;;;;-3.29;81.72;99844.25;4196243;28;20051;-71
2022/03/24 05:27:49;;;;;;;28.63;14.97;;;;;;;-3.33;82.63;99840.41;4190023;28;20044;-71
2022/03/24 05:29:49;;;;;;;27.80;14.70;;;;;;;-3.35;82.53;99842.53;4200052;28;20567;-71
2022/03/24 05:31:49;;;;;;;24.90;13.32;;;;;;;-3.35;83.30;99846.06;4196591;28;20109;-71
2022/03/24 05:33:50;;;;;;;34.17;17.10;;;;;;;-3.32;83.22;99848.25;4196186;28;20044;-71
2022/03/24 05:35:51;;;;;;;30.95;15.65;;;;;;;-3.32;82.42;99845.56;4190251;28;20304;-71
2022/03/24 05:37:51;;;;;;;30.00;15.05;;;;;;;-3.31;82.65;99849.06;4196367;28;20044;-71
2022/03/24 05:39:51;;;;;;;34.78;16.13;;;;;;;-3.31;82.06;99849.91;4196938;28;20035;-71
2022/03/24 05:41:52;;;;;;;31.95;15.75;;;;;;;-3.27;82.07;99861.88;4197749;28;20079;-71
2022/03/24 05:44:06;;;;;;;31.92;16.00;;;;;;;-3.26;82.48;99857.25;4195188;28;20056;-71
2022/03/24 05:46:06;;;;;;;53.55;21.25;;;;;;;-3.23;82.86;99854.03;4195785;28;20484;-71
2022/03/24 05:48:06;;;;;;;60.67;30.17;;;;;;;-3.23;82.10;99852.16;4194927;28;20028;-71
2022/03/24 05:50:07;;;;;;;53.47;27.33;;;;;;;-3.20;81.39;99856.25;4196306;28;20035;-71
2022/03/24 05:52:08;;;;;;;51.00;25.85;;;;;;;-3.21;81.09;99854.63;4191592;28;20032;-71
2022/03/24 05:54:09;;;;;;;56.88;27.90;;;;;;;-3.21;81.29;99852.72;4192564;28;20583;-72
2022/03/24 05:56:10;;;;;;;55.13;27.42;;;;;;;-3.20;81.66;99848.94;4136735;28;20291;-71
2022/03/24 05:58:11;;;;;;;43.05;23.75;;;;;;;-3.12;80.87;99853.91;4196155;28;20128;-71
2022/03/24 06:00:12;;;;;;;46.20;23.63;;;;;;;-3.04;80.61;99846.41;4190461;28;20032;-71
2022/03/24 06:02:13;;;;;;;46.90;21.70;;;;;;;-3.02;80.44;99841.53;4198442;28;20424;-71
2022/03/24 06:04:15;;;;;;;44.47;20.70;;;;;;;-2.97;80.77;99850.56;4198361;28;20516;-71
2022/03/24 06:06:16;;;;;;;41.97;19.77;;;;;;;-2.90;80.52;99848.44;4198314;28;20380;-71
2022/03/24 06:08:17;;;;;;;40.17;19.52;;;;;;;-2.79;79.46;99841.22;4190129;28;20043;-71
2022/03/24 06:10:18;;;;;;;44.42;19.55;;;;;;;-2.67;79.18;99843.75;4195981;28;20388;-71
2022/03/24 06:12:18;;;;;;;37.40;18.67;;;;;;;-2.57;78.12;99857.38;4196894;28;20025;-71
2022/03/24 06:14:20;;;;;;;34.25;17.00;;;;;;;-2.49;77.26;99851.50;4199406;28;20148;-71
2022/03/24 06:16:21;;;;;;;36.42;17.98;;;;;;;-2.42;77.78;99851.28;4193615;28;20111;-71
2022/03/24 06:18:22;;;;;;;32.95;17.50;;;;;;;-2.38;78.74;99861.34;4192128;28;20088;-71
2022/03/24 06:20:22;;;;;;;34.30;16.42;;;;;;;-2.35;78.90;99851.88;4198910;28;20035;-71
2022/03/24 06:22:22;;;;;;;33.35;16.42;;;;;;;-2.34;79.41;99862.47;4196542;28;20032;-71
2022/03/24 06:24:23;;;;;;;32.63;15.38;;;;;;;-2.32;80.42;99851.34;4195326;28;20048;-71
2022/03/24 06:26:23;;;;;;;26.50;14.05;;;;;;;-2.31;80.27;99853.81;4195286;28;20033;-71
2022/03/24 06:28:24;;;;;;;28.45;15.88;;;;;;;-2.26;80.90;99855.75;4194680;28;20690;-71
2022/03/24 06:30:25;;;;;;;30.73;15.70;;;;;;;-2.26;80.34;99851.13;4190908;28;20044;-71
2022/03/24 06:32:27;;;;;;;34.50;17.85;;;;;;;-2.19;80.89;99861.75;4192511;28;21224;-71
2022/03/24 06:34:27;;;;;;;33.58;17.20;;;;;;;-2.16;81.14;99855.81;4197356;28;20040;-71
2022/03/24 06:36:28;;;;;;;38.35;18.05;;;;;;;-2.08;80.85;99859.91;4196835;28;20706;-71
2022/03/24 06:38:28;;;;;;;30.45;16.42;;;;;;;-1.98;78.44;99865.44;4195022;28;20032;-71
2022/03/24 06:40:28;;;;;;;34.78;17.48;;;;;;;-1.91;78.43;99866.00;4196454;28;20059;-71
2022/03/24 06:42:29;;;;;;;34.50;16.67;;;;;;;-1.83;77.52;99856.53;4194663;28;20040;-70
2022/03/24 06:44:29;;;;;;;29.02;16.70;;;;;;;-1.77;77.76;99860.94;4197634;28;20472;-71
2022/03/24 06:46:29;;;;;;;31.40;16.42;;;;;;;-1.73;78.06;99853.91;4196893;28;20070;-71
2022/03/24 06:48:30;;;;;;;34.20;16.90;;;;;;;-1.67;78.67;99854.72;4193572;28;20486;-71
2022/03/24 06:50:30;;;;;;;34.55;16.00;;;;;;;-1.62;79.19;99852.06;4197205;28;20040;-71
2022/03/24 06:52:31;;;;;;;30.80;16.25;;;;;;;-1.57;79.39;99860.19;4197253;28;20064;-71
2022/03/24 06:54:31;;;;;;;31.15;16.75;;;;;;;-1.50;78.95;99858.06;4192199;28;20491;-71
2022/03/24 06:56:31;;;;;;;43.33;18.70;;;;;;;-1.43;79.15;99861.34;4194302;28;20674;-71
2022/03/24 06:58:32;;;;;;;65.50;29.15;;;;;;;-1.38;80.36;99847.81;4194774;28;20044;-71
2022/03/24 07:00:33;;;;;;;105.53;39.58;;;;;;;-1.30;80.36;99857.34;4196689;28;20040;-71
2022/03/24 07:02:33;;;;;;;74.57;32.88;;;;;;;-1.23;80.23;99858.72;4191134;28;20492;-71
2022/03/24 07:04:34;;;;;;;56.22;24.52;;;;;;;-1.14;80.11;99857.13;4198363;28;20048;-71
2022/03/24 07:06:34;;;;;;;52.13;22.48;;;;;;;-1.07;79.65;99850.63;4195979;28;20048;-71
2022/03/24 07:08:36;;;;;;;51.72;23.38;;;;;;;-0.98;79.12;99849.03;4197913;28;20040;-71
2022/03/24 07:10:36;;;;;;;47.90;21.15;;;;;;;-0.90;77.22;99856.63;4194631;28;20036;-71
2022/03/24 07:12:37;;;;;;;44.35;19.80;;;;;;;-0.80;76.24;99862.09;4194975;28;20186;-71
2022/03/24 07:14:37;;;;;;;37.58;18.38;;;;;;;-0.72;76.26;99847.97;4196520;28;20060;-71
2022/03/24 07:16:37;;;;;;;36.33;18.08;;;;;;;-0.63;76.75;99849.06;4190845;28;20495;-71
2022/03/24 07:18:38;;;;;;;37.30;17.30;;;;;;;-0.52;77.89;99855.31;4194507;28;20086;-71
2022/03/24 07:20:38;;;;;;;34.58;16.40;;;;;;;-0.40;78.42;99849.63;4191072;28;20047;-71
2022/03/24 07:22:39;;;;;;;30.30;17.25;;;;;;;-0.32;78.32;99862.66;4198392;28;20386;-71
2022/03/24 07:24:39;;;;;;;34.20;15.90;;;;;;;-0.23;77.04;99852.88;4194773;28;20487;-71
2022/03/24 07:26:40;;;;;;;32.42;17.45;;;;;;;-0.14;78.06;99859.38;4193826;28;20090;-71
2022/03/24 07:28:40;;;;;;;32.45;16.17;;;;;;;-0.04;79.15;99864.81;4189355;28;20473;-71
2022/03/24 07:30:43;;;;;;;35.30;16.92;;;;;;;0.07;79.34;99859.34;4198487;28;20043;-71
2022/03/24 07:32:43;;;;;;;35.60;16.50;;;;;;;0.17;78.54;99859.34;4196171;28;20086;-71
2022/03/24 07:34:44;;;;;;;31.40;16.85;;;;;;;0.25;77.30;99856.03;4195194;28;20048;-71
2022/03/24 07:36:44;;;;;;;35.58;18.17;;;;;;;0.32;76.05;99867.44;4197202;28;20497;-71
2022/03/24 07:38:45;;;;;;;45.47;21.88;;;;;;;0.43;76.35;99860.06;4193921;28;20070;-71
2022/03/24 07:40:45;;;;;;;55.70;24.55;;;;;;;0.56;77.09;99856.75;4194424;28;20713;-71
2022/03/24 07:42:45;;;;;;;43.00;20.88;;;;;;;0.66;76.17;99858.59;4194908;28;20076;-71
2022/03/24 07:44:46;;;;;;;36.13;16.85;;;;;;;0.81;75.66;99853.09;4196242;28;20379;-71
2022/03/24 07:46:46;;;;;;;33.97;17.13;;;;;;;0.93;74.48;99858.22;4195961;28;20040;-71
2022/03/24 07:48:48;;;;;;;37.15;17.23;;;;;;;1.02;74.23;99851.88;4190161;28;20421;-71
2022/03/24 07:50:49;;;;;;;29.52;15.88;;;;;;;1.16;73.72;99852.09;4198301;28;20048;-71
2022/03/24 07:52:49;;;;;;;30.63;16.33;;;;;;;1.25;73.57;99852.31;4189819;28;20029;-71
2022/03/24 07:55:00;;;;;;;34.65;16.38;;;;;;;1.43;74.64;99857.06;4194434;28;20097;-71
2022/03/24 07:57:01;;;;;;;30.55;16.65;;;;;;;1.58;73.35;99854.22;4188978;28;20465;-71
2022/03/24 07:59:02;;;;;;;38.13;18.65;;;;;;;1.67;73.06;99852.53;4194078;28;20694;-71
2022/03/24 08:01:02;;;;;;;31.48;18.23;;;;;;;1.81;72.60;99858.09;4196431;28;20143;-71
2022/03/24 08:03:05;;;;;;;37.47;16.77;;;;;;;1.89;72.65;99848.50;4199381;28;20052;-71
2022/03/24 08:05:06;;;;;;;33.28;15.13;;;;;;;2.01;72.58;99857.13;4195552;28;20306;-71
2022/03/24 08:07:06;;;;;;;31.63;16.45;;;;;;;2.11;72.64;99854.28;4191466;28;20039;-71
2022/03/24 08:09:07;;;;;;;27.33;14.95;;;;;;;2.23;72.84;99856.59;4196509;28;20101;-71
2022/03/24 08:11:07;;;;;;;30.67;15.70;;;;;;;2.31;72.31;99857.91;4193979;28;20557;-71
2022/03/24 08:13:10;;;;;;;28.73;16.17;;;;;;;2.43;72.01;99861.88;4193053;28;20044;-71
2022/03/24 08:15:10;;;;;;;33.75;17.35;;;;;;;2.56;71.91;99852.13;4194648;28;20075;-71
2022/03/24 08:17:11;;;;;;;31.13;16.17;;;;;;;2.71;71.49;99857.41;4196491;28;20146;-71
2022/03/24 08:19:12;;;;;;;36.28;17.92;;;;;;;2.88;71.49;99848.72;4196612;28;20193;-71
2022/03/24 08:21:12;;;;;;;31.73;17.52;;;;;;;3.00;70.43;99854.59;4192058;28;20304;-71
2022/03/24 08:23:13;;;;;;;34.83;18.75;;;;;;;3.13;71.02;99849.50;4196176;28;20064;-71
2022/03/24 08:25:13;;;;;;;33.20;17.20;;;;;;;3.22;71.29;99850.44;4193968;28;20467;-71
2022/03/24 08:27:14;;;;;;;30.02;16.80;;;;;;;3.30;71.15;99847.03;4192831;28;20127;-71
2022/03/24 08:29:14;;;;;;;31.92;17.05;;;;;;;3.42;70.40;99844.69;4193947;28;20036;-71
2022/03/24 08:31:14;;;;;;;32.40;16.63;;;;;;;3.51;68.38;99853.03;4196916;28;20036;-71
2022/03/24 08:33:15;;;;;;;31.90;17.30;;;;;;;3.58;66.89;99848.81;4196668;28;20048;-71
2022/03/24 08:35:16;;;;;;;31.95;17.70;;;;;;;3.70;68.85;99848.31;4191346;28;20135;-71
2022/03/24 08:37:16;;;;;;;34.53;17.55;;;;;;;3.81;70.54;99846.25;4196618;28;20040;-71
2022/03/24 08:39:16;;;;;;;32.30;17.00;;;;;;;3.90;69.61;99855.41;4193879;28;20171;-71
2022/03/24 08:41:17;;;;;;;31.90;17.33;;;;;;;3.98;68.54;99846.50;4193853;28;20377;-71
2022/03/24 08:43:17;;;;;;;50.83;24.40;;;;;;;4.12;67.52;99851.97;4195691;28;20121;-71
2022/03/24 08:45:18;;;;;;;40.95;20.42;;;;;;;4.25;66.94;99848.47;4198352;28;20110;-71
2022/03/24 08:47:18;;;;;;;43.78;21.95;;;;;;;4.40;66.53;99850.91;4191874;28;20311;-71
2022/03/24 08:49:18;;;;;;;38.28;19.40;;;;;;;4.56;65.06;99851.44;4191361;28;20078;-71
2022/03/24 08:51:19;;;;;;;32.63;18.80;;;;;;;4.64;65.03;99841.69;4196002;28;20089;-71
2022/03/24 08:53:19;;;;;;;34.40;18.70;;;;;;;4.72;64.89;99840.97;4194213;28;20103;-71
2022/03/24 08:55:20;;;;;;;33.55;18.88;;;;;;;4.85;64.46;99848.34;4188844;28;20548;-71
2022/03/24 08:57:27;;;;;;;35.20;19.02;;;;;;;4.96;64.30;99848.94;4197989;28;20047;-71
2022/03/24 08:59:28;;;;;;;34.53;18.70;;;;;;;5.08;64.63;99857.47;4199623;28;20122;-71
2022/03/24 09:01:29;;;;;;;33.40;18.77;;;;;;;5.24;64.19;99853.25;4199626;28;20087;-71
2022/03/24 09:03:29;;;;;;;35.08;19.13;;;;;;;5.36;63.50;99853.50;4195439;28;20305;-71
2022/03/24 09:05:30;;;;;;;34.92;18.52;;;;;;;5.43;64.06;99852.28;4202406;28;20210;-71
2022/03/24 09:07:30;;;;;;;43.75;22.55;;;;;;;5.58;62.72;99851.91;4198220;28;20036;-71
2022/03/24 09:09:30;;;;;;;39.38;19.25;;;;;;;5.66;62.46;99853.09;4199237;28;20468;-71
2022/03/24 09:11:31;;;;;;;34.45;18.48;;;;;;;5.75;62.04;99853.97;4198949;28;20040;-71
2022/03/24 09:13:31;;;;;;;36.90;18.08;;;;;;;5.89;62.05;99851.97;4199043;28;20043;-71
2022/03/24 09:15:31;;;;;;;35.65;19.98;;;;;;;6.15;60.51;99858.47;4199587;28;20055;-71
2022/03/24 09:17:33;;;;;;;36.65;19.40;;;;;;;6.30;59.13;99849.00;4192169;28;20044;-71